Independence, WI (54747)

11:13 AM CDT on October 24, 2014 (GMT -0500)
KWIOSSEO2 | Change Station
CLOSE
Current Station
Personal Weather Station
Location: Osseo, WI
Elevation: 997 ft
Nearby Weather Stations

Elev 997 ft 44.59 °N, 91.27 °W | Updated 1 minute ago

Overcast
Overcast
50.8 °F
Feels Like 50.8 °F
N
1.0
Wind Variable Wind from South
Gusts 5.0 mph

Today
High -- | Low -- °F
--% Chance of Precip.
Yesterday
High -- | Low -- °F
Precip. -- in
7:32 AM 6:06 PM
New Moon, 1% visible
Pressure 29.95 in
Visibility 10.0 miles
Clouds Scattered Clouds 4800 ft
Dew Point 50 °F
Humidity 97%
Rainfall -999.00 in
Snow Depth Not available.
UV 2 out of 12
Pollen 1.30 out of 12
Air Quality Not available.
Flu Activity Sporadic
METAR KONA 241554Z AUTO 13008KT 10SM SCT048 13/11 A2995 RMK AO2

More Conditions Fewer Conditions

Pressure 29.95 in
Visibility 10.0 miles
Clouds Scattered Clouds 4800 ft
Dew Point 50 °F
Humidity 97%
Rainfall -999.00 in
Snow Depth Not available.
UV 2 out of 12
Pollen 1.30 out of 12
Air Quality Not available.
Flu Activity Sporadic
METAR KONA 241554Z AUTO 13008KT 10SM SCT048 13/11 A2995 RMK AO2

More Conditions Fewer Conditions

10-Day Weather Forecast

Almanac

Astronomy

Oct. 24, 2014 Rise Set
Actual Time 7:32 AM CDT 6:06 PM CDT
Civil Twilight 7:02 AM CDT 6:36 PM CDT
Nautical Twilight 6:28 AM CDT 7:10 PM CDT
Astronomical Twilight 5:54 AM CDT 7:43 PM CDT
Moon 8:12 AM CDT 6:45 PM CDT
Length of Visible Light 11h 33m
Length of Day
10h 34m
Tomorrow will be 2m 52s shorter.
New Moon, 1% of the Moon is Illuminated
Today
New Moon
Oct 30
First Quarter
Nov 6
Full
Nov 14
Last Quarter
Nov 22
New

Today's Extremes

State Highs State Lows

Community

WunderPhotos

Upload Photos

1,764,600 photos uploaded!

WunderBlogs® & News

Nearby

Snow Depth

Station Depth Elevation
No new snow has been reported.

Earthquake Activity

City Distance Mag. Time & Date
No recent earthquake activity has been reported nearby.
Minimum magnitude displayed is 2.5.

Coastal Water Temperatures

Place Temperature
No Stations Reporting

Nearby Weather Stations